• Join FlightAware (Why Join?)
  • Login
  • US Flag 
11:33AM EDT


 

Airport Tracker/Info


-or-


 

Live Flight TrackerFlight Track Log ✈ UAL1088 ✈ 13-May-2013 ✈ KORD - KPIT

Flight Track Log - Related Links

Times and Time Zones

All times are in EDT time to prevent confusion due to time zone crossing. See the UAL1088 flight status page for this flight to view local times or setup timezone preferences in your user account.

Time Position Orientation Groundspeed Altitude Reporting Facility
EDT Latitude Longitude Course Direction KTS MPH feet Rate Location/Type
02:40PM 41.9330 -87.9160 217° Southwest 190 219 1,700  Level FlightAware
02:40PM 41.9310 -87.9160 180° South 194 223 1,700 1,800 Level FlightAware
02:41PM 41.9070 -87.8990 152° Southeast 228 262 2,600 2,760 Climbing FlightAware
02:41PM 41.8880 -87.8750 137° Southeast 227 261 4,000 2,580 Climbing FlightAware
02:42PM 41.8630 -87.8440 137° Southeast 265 305 5,000 2,400 Climbing FlightAware
02:42PM 41.8400 -87.8060 129° Southeast 278 320 6,400 2,880 Climbing FlightAware
02:43PM 41.8360 -87.7790 101° East 279 321 7,200 2,520 Climbing FlightAware
02:43PM 41.8410 -87.7370 81° East 294 338 8,100 2,820 Climbing FlightAware
02:43PM 41.8450 -87.7090 79° East 294 338 9,100 3,240 Climbing FlightAware
02:44PM 41.8570 -87.6390 77° East 298 343 11,100 2,880 Climbing FlightAware
02:45PM 41.8700 -87.5560 78° East 307 353 13,200 2,520 Climbing FlightAware
02:45PM 41.8820 -87.4760 79° East 320 368 14,700 1,200 Climbing FlightAware
02:46PM 41.8940 -87.4010 78° East 319 367 14,800 1,200 Climbing FlightAware
02:47PM 41.9080 -87.3110 78° East 325 374 16,400 2,220 Climbing FlightAware
02:47PM 41.9200 -87.2330 78° East 332 382 18,000 1,800 Climbing FlightAware
02:48PM 41.9340 -87.1410 78° East 346 398 19,000 660 Climbing FlightAware
02:49PM 41.9460 -87.0510 80° East 380 437 19,000  Level FlightAware
02:49PM 41.9470 -86.9580 89° East 402 463 19,000  Level FlightAware
02:50PM 41.9490 -86.8410 89° East 403 464 19,000 720 Level FlightAware
02:51PM 41.9500 -86.7430 89° East 410 472 20,100 1,860 Climbing FlightAware
02:52PM 41.9520 -86.6270 89° East 417 480 21,700 1,920 Climbing FlightAware
02:52PM 41.9530 -86.5210 89° East 426 490 22,900 1,020 Climbing FlightAware
02:53PM 41.9540 -86.4170 89° East 428 493 23,100 660 Climbing FlightAware
02:54PM 41.9550 -86.2970 89° East 419 482 23,900 660 Climbing FlightAware
02:54PM 41.9530 -86.2110 92° East 429 494 24,000 60 Climbing FlightAware
02:55PM 41.9290 -86.0730 103° East 440 506 24,000  Level FlightAware
02:56PM 41.9090 -85.9740 105° East 441 507 24,000  Level FlightAware
02:57PM 41.8840 -85.8480 105° East 464 534 24,000 180 Level FlightAware
02:57PM 41.8550 -85.7040 105° East 469 540 24,300 840 Climbing FlightAware
02:58PM 41.8310 -85.5840 105° East 475 547 25,400 720 Climbing FlightAware
02:59PM 41.8080 -85.4700 105° East 475 547 25,400 1,080 Level FlightAware
02:59PM 41.7850 -85.3540 105° East 482 555 26,900 2,460 Climbing FlightAware
03:00PM 41.7480 -85.1750 105° East 479 551 29,300 1,920 Climbing FlightAware
03:01PM 41.7230 -85.0530 105° East 479 551 30,300 1,320 Climbing FlightAware
03:02PM 41.7050 -84.9670 106° East 479 551 31,000 420 Climbing FlightAware
03:03PM 41.6690 -84.7820 105° East 463 533 31,000  Level FlightAware
03:04PM 41.6610 -84.6510 95° East 447 514 31,000  Level FlightAware
03:04PM 41.6560 -84.5410 93° East 453 521 31,000  Level FlightAware
03:05PM 41.6380 -84.4310 102° East 470 541 31,000  Level FlightAware
03:06PM 41.6160 -84.3100 104° East 469 540 31,000  Level FlightAware
03:06PM 41.5950 -84.1960 104° East 468 539 31,000  Level FlightAware
03:07PM 41.5650 -84.0350 104° East 466 536 31,000  Level FlightAware
03:08PM 41.5420 -83.9120 104° East 465 535 31,000  Level FlightAware
03:09PM 41.5220 -83.8080 104° East 464 534 31,000  Level FlightAware
03:09PM 41.4980 -83.6780 104° East 464 534 31,000  Level FlightAware
03:10PM 41.4760 -83.5630 104° East 464 534 31,000  Level FlightAware
03:11PM 41.4560 -83.4580 104° East 465 535 31,000  Level FlightAware
03:11PM 41.4310 -83.3290 104° East 465 535 31,000  Level FlightAware
03:12PM 41.4090 -83.2170 105° East 465 535 31,000  Level FlightAware
03:13PM 41.3890 -83.1130 104° East 465 535 31,000  Level FlightAware
03:14PM 41.3630 -82.9820 105° East 468 539 31,000  Level FlightAware
03:14PM 41.3420 -82.8730 104° East 469 540 31,000  Level FlightAware
03:15PM 41.3180 -82.7520 105° East 469 540 31,000  Level FlightAware
03:16PM 41.2960 -82.6420 105° East 471 542 31,000 -480 Level FlightAware
03:16PM 41.2720 -82.5230 105° East 471 542 30,400 -1,020 Descending FlightAware
03:17PM 41.2470 -82.3980 105° East 468 539 29,600 -1,020 Descending FlightAware
03:18PM 41.2250 -82.2930 106° East 466 536 29,000 -1,020 Descending FlightAware
03:18PM 41.1990 -82.1630 105° East 464 534 28,200 -1,080 Descending FlightAware
03:19PM 41.1770 -82.0570 105° East 465 535 27,500 -1,020 Descending FlightAware
03:20PM 41.1510 -81.9300 105° East 457 526 26,800 -1,140 Descending FlightAware
03:21PM 41.1280 -81.8220 106° East 452 520 25,900 -1,680 Descending FlightAware
03:21PM 41.1070 -81.7190 105° East 442 509 24,600 -1,980 Descending FlightAware
03:22PM 41.0830 -81.6040 105° East 432 497 23,100 -2,100 Descending FlightAware
03:23PM 41.0620 -81.5040 106° East 421 484 21,700 -2,040 Descending FlightAware
03:23PM 41.0400 -81.4030 106° East 410 472 20,400 -1,920 Descending FlightAware
03:24PM 41.0180 -81.2960 105° East 397 457 19,000 -1,740 Descending FlightAware
03:25PM 40.9980 -81.2060 106° East 380 437 18,000 -1,800 Descending FlightAware
03:25PM 40.9770 -81.1090 106° East 374 430 16,500 -1,980 Descending FlightAware
03:26PM 40.9580 -81.0210 106° East 368 423 15,200 -1,980 Descending FlightAware
03:27PM 40.9390 -80.9330 106° East 363 418 13,900 -1,920 Descending FlightAware
03:28PM 40.9190 -80.8390 106° East 355 409 12,500 -1,740 Descending FlightAware
03:28PM 40.9030 -80.7650 106° East 348 400 11,500 -1,140 Descending FlightAware
03:29PM 40.8770 -80.6450 106° East 346 398 10,600 -540 Descending FlightAware
03:30PM 40.8630 -80.5750 105° East 346 398 10,600  Level FlightAware
03:31PM 40.8490 -80.5050 105° East 346 398 10,600 -1,740 Level FlightAware
03:31PM 40.7531 -80.5092 105° East 296 341 8,600 -2,100 Descending Cleveland Center
03:32PM 40.6944 -80.4433 140° Southeast 283 326 7,500 -1,260 Descending Cleveland Center
03:33PM 40.6381 -80.3778 139° Southeast 283 326 6,100 -780 Descending Cleveland Center
03:34PM 40.5839 -80.3097 136° Southeast 278 320 6,000 -120 Descending Cleveland Center
03:36PM 40.4915 -80.2329 143° Southeast  Level Estimated
03:43PM 40.4915 -80.2329 143° Southeast  Level Estimated
03:44PM 40.4915 -80.2329 143° Southeast  Level Estimated
03:45PM 40.4915 -80.2329 143° Southeast  Level Estimated